Time;durP1;ratioP1;P1;durP2;ratioP2;P2;SDS_P1;SDS_P2;PMS_P1;PMS_P2;Temp;Humidity;BMP_temperature;BMP_pressure;BME280_temperature;BME280_humidity;BME280_pressure;Samples;Min_cycle;Max_cycle;Signal;HPM_P1;HPM_P2
2022/10/20 00:02:07;;;;;;;;;;;14.20;82.60;;;;;;5096386;28;19952;-88
2022/10/20 00:04:33;;;;;;;;;;;14.10;84.40;;;;;;5078535;28;19983;-88
2022/10/20 00:06:58;;;;;;;;;;;14.00;85.80;;;;;;5078433;28;19950;-87
2022/10/20 00:09:24;;;;;;;;;;;14.00;87.30;;;;;;5096593;28;19946;-88
2022/10/20 00:11:49;;;;;;;;;;;14.00;87.60;;;;;;5096360;28;20425;-88
2022/10/20 00:14:15;;;;;;;;;;;14.00;87.50;;;;;;5096570;28;20309;-88
2022/10/20 00:16:41;;;;;;;;;;;14.10;87.30;;;;;;5096468;28;20383;-88
2022/10/20 00:19:06;;;;;;;;;;;14.20;87.00;;;;;;5096358;28;19934;-88
2022/10/20 00:21:32;;;;;;;;;;;14.20;86.80;;;;;;5096096;28;20469;-88
2022/10/20 00:23:59;;;;;;;;;;;14.20;86.80;;;;;;5096226;28;20035;-88
2022/10/20 00:26:25;;;;;;;;;;;14.30;87.30;;;;;;5096305;28;19946;-88
2022/10/20 00:28:51;;;;;;;;;;;14.20;86.60;;;;;;5096067;28;20447;-87
2022/10/20 00:31:17;;;;;;;;;;;14.20;86.40;;;;;;5096060;28;20048;-88
2022/10/20 00:33:44;;;;;;;;;;;14.20;86.00;;;;;;5096504;28;20025;-88
2022/10/20 00:36:12;;;;;;;;;;;14.20;85.90;;;;;;5096116;28;20390;-88
2022/10/20 00:38:37;;;;;;;;;;;14.20;86.00;;;;;;5096079;28;19987;-87
2022/10/20 00:41:03;;;;;;;;;;;14.20;86.10;;;;;;5095776;28;19991;-88
2022/10/20 00:43:48;;;;;;;;;;;14.10;86.10;;;;;;5096157;28;19987;-88
2022/10/20 00:46:24;;;;;;;;;;;14.10;86.40;;;;;;5095926;28;19940;-88
2022/10/20 00:48:54;;;;;;;;;;;14.10;87.00;;;;;;5095842;28;19941;-88
2022/10/20 00:51:21;;;;;;;;;;;14.00;86.90;;;;;;5095466;28;19967;-88
2022/10/20 00:53:47;;;;;;;;;;;14.00;87.00;;;;;;5095840;28;19943;-88
2022/10/20 00:56:13;;;;;;;;;;;14.00;87.40;;;;;;5095843;28;20390;-88
2022/10/20 00:58:38;;;;;;;;;;;14.00;88.00;;;;;;5095665;28;19943;-88
2022/10/20 01:01:04;;;;;;;;;;;14.00;88.40;;;;;;5095338;28;19944;-88
2022/10/20 01:03:33;;;;;;;;;;;14.00;88.80;;;;;;5095830;28;19973;-88
2022/10/20 01:05:59;;;;;;;;;;;14.00;88.40;;;;;;5095549;28;19942;-88
2022/10/20 01:08:25;;;;;;;;;;;14.00;88.40;;;;;;5095778;28;20126;-88
2022/10/20 01:10:56;;;;;;;;;;;14.10;88.00;;;;;;5095264;28;19947;-88
2022/10/20 01:13:35;;;;;;;;;;;14.10;87.90;;;;;;5095480;28;20399;-88
2022/10/20 01:16:08;;;;;;;;;;;14.10;88.00;;;;;;5095301;28;19938;-88
2022/10/20 01:18:46;;;;;;;;;;;14.20;87.30;;;;;;5095281;28;20394;-88
2022/10/20 01:21:30;;;;;;;;;;;14.10;87.20;;;;;;5095025;28;19947;-88
2022/10/20 01:24:07;;;;;;;;;;;14.10;87.30;;;;;;5095075;28;19975;-88
2022/10/20 01:26:42;;;;;;;;;;;14.10;87.90;;;;;;5095440;28;20470;-89
2022/10/20 01:29:13;;;;;;;;;;;14.00;87.90;;;;;;5094930;28;20444;-88
2022/10/20 01:31:52;;;;;;;;;;;13.90;88.40;;;;;;5094857;28;19953;-88
2022/10/20 01:34:27;;;;;;;;;;;13.90;88.40;;;;;;5094935;28;19944;-88
2022/10/20 01:36:52;;;;;;;;;;;13.90;89.00;;;;;;5095014;28;19937;-88
2022/10/20 01:39:29;;;;;;;;;;;13.80;89.40;;;;;;5094589;28;19953;-88
2022/10/20 01:41:59;;;;;;;;;;;13.80;89.40;;;;;;5076666;28;19997;-88
2022/10/20 01:44:25;;;;;;;;;;;13.90;89.30;;;;;;5094827;28;19939;-88
2022/10/20 01:46:51;;;;;;;;;;;14.00;88.60;;;;;;5094754;28;19939;-88
2022/10/20 01:49:17;;;;;;;;;;;14.00;87.50;;;;;;5094551;28;19957;-88
2022/10/20 01:51:42;;;;;;;;;;;14.00;87.10;;;;;;5094427;28;20314;-88
2022/10/20 01:54:28;;;;;;;;;;;14.00;86.20;;;;;;5094644;28;20047;-88
2022/10/20 01:57:06;;;;;;;;;;;14.00;85.60;;;;;;5093815;28;20386;-88
2022/10/20 01:59:36;;;;;;;;;;;14.00;85.50;;;;;;5094202;28;19998;-88
2022/10/20 02:02:05;;;;;;;;;;;14.10;85.40;;;;;;5094655;28;19998;-88
2022/10/20 02:04:53;;;;;;;;;;;14.00;85.30;;;;;;5094369;28;20339;-88
2022/10/20 02:07:24;;;;;;;;;;;14.00;85.40;;;;;;5071741;28;19943;-88
2022/10/20 02:09:52;;;;;;;;;;;13.90;85.70;;;;;;5094338;28;20006;-88
2022/10/20 02:12:26;;;;;;;;;;;13.90;85.70;;;;;;5093727;28;19940;-88
2022/10/20 02:14:52;;;;;;;;;;;13.80;86.40;;;;;;5094208;28;19943;-88
2022/10/20 02:17:17;;;;;;;;;;;13.90;86.50;;;;;;5094113;28;19995;-88
2022/10/20 02:19:44;;;;;;;;;;;13.80;86.60;;;;;;5093823;28;19948;-88
2022/10/20 02:22:12;;;;;;;;;;;13.80;86.80;;;;;;5094031;28;19951;-88
2022/10/20 02:24:38;;;;;;;;;;;13.90;87.30;;;;;;5094079;28;19937;-88
2022/10/20 02:27:07;;;;;;;;;;;13.90;87.50;;;;;;5093981;28;20047;-88
2022/10/20 02:29:40;;;;;;;;;;;13.90;88.00;;;;;;5093539;28;19976;-88
2022/10/20 02:32:06;;;;;;;;;;;13.90;87.70;;;;;;5093924;28;20046;-88
2022/10/20 02:34:32;;;;;;;;;;;13.80;87.50;;;;;;5093895;28;19940;-88
2022/10/20 02:36:58;;;;;;;;;;;13.70;87.10;;;;;;5093822;28;19941;-89
2022/10/20 02:39:24;;;;;;;;;;;13.60;88.20;;;;;;5093503;28;20058;-88
2022/10/20 02:41:50;;;;;;;;;;;13.50;88.70;;;;;;5093473;28;20402;-88
2022/10/20 02:44:16;;;;;;;;;;;13.50;88.50;;;;;;5093630;28;20060;-88
2022/10/20 02:46:41;;;;;;;;;;;13.60;88.80;;;;;;5093967;28;19939;-88
2022/10/20 02:49:07;;;;;;;;;;;13.50;88.90;;;;;;5093459;28;19951;-88
2022/10/20 02:51:32;;;;;;;;;;;13.50;88.80;;;;;;5093395;28;19957;-88
2022/10/20 02:53:58;;;;;;;;;;;13.50;88.50;;;;;;5093608;28;19940;-87
2022/10/20 02:56:24;;;;;;;;;;;13.40;89.20;;;;;;5093855;28;19967;-88
2022/10/20 02:58:49;;;;;;;;;;;13.40;89.60;;;;;;5093183;28;19952;-88
2022/10/20 03:01:15;;;;;;;;;;;13.40;89.90;;;;;;5093418;28;19982;-88
2022/10/20 03:03:40;;;;;;;;;;;13.60;89.30;;;;;;5093411;28;20054;-89
2022/10/20 03:06:07;;;;;;;;;;;13.70;88.90;;;;;;5093628;28;19951;-88
2022/10/20 03:08:32;;;;;;;;;;;13.60;88.50;;;;;;5092931;28;19937;-88
2022/10/20 03:10:58;;;;;;;;;;;13.70;88.10;;;;;;5093332;28;19939;-88
2022/10/20 03:13:24;;;;;;;;;;;13.70;88.10;;;;;;5093305;28;20360;-88
2022/10/20 03:15:49;;;;;;;;;;;13.70;88.00;;;;;;5093301;28;20152;-88
2022/10/20 03:18:15;;;;;;;;;;;13.60;87.50;;;;;;5092983;28;20359;-89
2022/10/20 03:20:40;;;;;;;;;;;13.60;87.50;;;;;;5093263;28;19942;-88
2022/10/20 03:23:06;;;;;;;;;;;13.60;87.50;;;;;;5093155;28;20047;-88
2022/10/20 03:25:31;;;;;;;;;;;13.60;87.50;;;;;;5096860;28;19936;-88
2022/10/20 03:27:57;;;;;;;;;;;13.60;87.50;;;;;;5097281;28;20031;-89
2022/10/20 03:30:23;;;;;;;;;;;13.60;87.20;;;;;;5097138;28;20158;-88
2022/10/20 03:32:48;;;;;;;;;;;13.50;87.40;;;;;;5097611;28;19979;-88
2022/10/20 03:35:14;;;;;;;;;;;13.50;87.30;;;;;;5097184;28;20374;-88
2022/10/20 03:37:39;;;;;;;;;;;13.50;87.60;;;;;;5097194;28;19942;-88
2022/10/20 03:40:05;;;;;;;;;;;13.50;88.00;;;;;;5096933;28;19944;-88
2022/10/20 03:42:31;;;;;;;;;;;13.40;87.90;;;;;;5097085;28;20007;-88
2022/10/20 03:44:56;;;;;;;;;;;13.30;88.40;;;;;;5097060;28;20343;-87
2022/10/20 03:47:22;;;;;;;;;;;13.30;88.40;;;;;;5097052;28;20349;-87
2022/10/20 03:49:47;;;;;;;;;;;13.10;87.90;;;;;;5096824;28;20322;-88
2022/10/20 03:52:13;;;;;;;;;;;13.10;88.30;;;;;;5096779;28;19961;-88
2022/10/20 03:54:39;;;;;;;;;;;13.10;88.10;;;;;;5096855;28;20317;-88
2022/10/20 03:57:05;;;;;;;;;;;13.10;88.40;;;;;;5096915;28;19982;-88
2022/10/20 03:59:30;;;;;;;;;;;13.20;88.30;;;;;;5096560;28;20032;-88
2022/10/20 04:01:56;;;;;;;;;;;13.20;88.30;;;;;;5096576;28;20030;-88
2022/10/20 04:04:22;;;;;;;;;;;13.30;88.30;;;;;;5096613;28;20311;-88
2022/10/20 04:06:47;;;;;;;;;;;13.30;88.20;;;;;;5096672;28;19942;-88
2022/10/20 04:09:13;;;;;;;;;;;13.30;88.30;;;;;;5096049;28;19945;-88
2022/10/20 04:11:38;;;;;;;;;;;13.30;88.40;;;;;;5096439;28;19946;-88
2022/10/20 04:14:04;;;;;;;;;;;13.30;88.20;;;;;;5096563;28;19940;-88
2022/10/20 04:16:29;;;;;;;;;;;13.30;88.20;;;;;;5096474;28;19950;-88
2022/10/20 04:18:55;;;;;;;;;;;13.30;88.10;;;;;;5096414;28;19944;-88
2022/10/20 04:21:21;;;;;;;;;;;13.30;88.10;;;;;;5096368;28;19939;-88
2022/10/20 04:23:47;;;;;;;;;;;13.20;87.90;;;;;;5096291;28;19963;-88
2022/10/20 04:26:14;;;;;;;;;;;13.20;87.20;;;;;;5096298;28;19975;-88
2022/10/20 04:28:40;;;;;;;;;;;13.20;86.90;;;;;;5096095;28;20403;-88
2022/10/20 04:31:06;;;;;;;;;;;13.20;87.30;;;;;;5096173;28;19955;-88
2022/10/20 04:33:32;;;;;;;;;;;13.20;87.60;;;;;;5096221;28;20037;-88
2022/10/20 04:36:01;;;;;;;;;;;13.10;87.90;;;;;;5095450;28;19952;-88
2022/10/20 04:38:28;;;;;;;;;;;13.10;88.10;;;;;;5096064;28;20317;-87
2022/10/20 04:40:57;;;;;;;;;;;13.10;88.30;;;;;;5096031;28;19938;-88
2022/10/20 04:43:23;;;;;;;;;;;13.00;88.60;;;;;;5095952;28;20313;-88
2022/10/20 04:45:48;;;;;;;;;;;13.00;88.20;;;;;;5095650;28;19952;-88
2022/10/20 04:48:14;;;;;;;;;;;12.90;87.20;;;;;;5095887;28;19950;-88
2022/10/20 04:50:39;;;;;;;;;;;12.90;86.70;;;;;;5095696;28;19940;-89
2022/10/20 04:53:06;;;;;;;;;;;12.90;85.70;;;;;;5095753;28;19944;-88
2022/10/20 04:55:31;;;;;;;;;;;12.90;87.20;;;;;;5095595;28;19948;-88
2022/10/20 04:57:57;;;;;;;;;;;12.80;87.60;;;;;;5077851;28;20338;-88
2022/10/20 05:00:22;;;;;;;;;;;12.80;87.80;;;;;;5095683;28;20309;-88
2022/10/20 05:02:48;;;;;;;;;;;12.70;87.90;;;;;;5094870;28;20308;-88
2022/10/20 05:05:13;;;;;;;;;;;12.60;88.10;;;;;;5095457;28;20383;-89
2022/10/20 05:07:39;;;;;;;;;;;12.70;88.70;;;;;;5095129;28;20319;-88
2022/10/20 05:10:05;;;;;;;;;;;12.70;88.20;;;;;;5076963;28;20410;-88
2022/10/20 05:12:30;;;;;;;;;;;12.80;88.70;;;;;;5095085;28;19942;-89
2022/10/20 05:14:56;;;;;;;;;;;12.90;88.50;;;;;;5095312;28;20029;-88
2022/10/20 05:17:21;;;;;;;;;;;13.00;88.20;;;;;;5095170;28;19947;-88
2022/10/20 05:19:47;;;;;;;;;;;13.10;88.40;;;;;;5094991;28;19951;-88
2022/10/20 05:22:12;;;;;;;;;;;13.00;88.50;;;;;;5094586;28;19944;-88
2022/10/20 05:24:38;;;;;;;;;;;13.20;87.90;;;;;;5094550;28;19951;-88
2022/10/20 05:27:03;;;;;;;;;;;13.20;88.20;;;;;;5094552;28;19944;-89
2022/10/20 05:29:29;;;;;;;;;;;13.20;88.10;;;;;;5075994;28;20427;-88
2022/10/20 05:31:55;;;;;;;;;;;13.20;87.50;;;;;;5084787;28;19939;-88
2022/10/20 05:34:20;;;;;;;;;;;13.20;87.20;;;;;;5074914;28;20419;-88
2022/10/20 05:36:46;;;;;;;;;;;13.20;86.90;;;;;;5094399;28;20404;-89
2022/10/20 05:39:11;;;;;;;;;;;13.10;87.10;;;;;;5094189;28;20453;-88
2022/10/20 05:41:37;;;;;;;;;;;13.10;87.40;;;;;;5094331;28;19946;-88
2022/10/20 05:44:03;;;;;;;;;;;13.10;87.60;;;;;;5092703;28;20456;-88
2022/10/20 05:46:31;;;;;;;;;;;13.10;87.60;;;;;;5088560;28;20063;-88
2022/10/20 05:48:57;;;;;;;;;;;13.30;87.70;;;;;;5094847;28;19946;-88
2022/10/20 05:51:24;;;;;;;;;;;13.20;87.50;;;;;;5095574;28;20011;-88
2022/10/20 05:53:50;;;;;;;;;;;13.30;87.30;;;;;;5097305;28;19946;-88
2022/10/20 05:56:17;;;;;;;;;;;13.30;87.00;;;;;;5092846;28;20001;-88
2022/10/20 05:58:43;;;;;;;;;;;13.40;86.60;;;;;;5086030;28;19975;-88
2022/10/20 06:01:17;;;;;;;;;;;13.40;86.70;;;;;;5091345;28;19943;-88
2022/10/20 06:04:01;;;;;;;;;;;13.50;86.60;;;;;;5098002;28;20415;-88
2022/10/20 06:06:28;;;;;;;;;;;13.60;86.70;;;;;;5091520;28;20489;-88
2022/10/20 06:08:54;;;;;;;;;;;13.70;86.70;;;;;;5099096;28;20015;-89
2022/10/20 06:11:20;;;;;;;;;;;13.70;86.70;;;;;;5092999;28;19943;-88
2022/10/20 06:13:46;;;;;;;;;;;13.70;86.10;;;;;;5089836;28;20047;-88
2022/10/20 06:16:13;;;;;;;;;;;13.70;86.40;;;;;;5093197;28;19944;-88
2022/10/20 06:18:39;;;;;;;;;;;13.80;86.20;;;;;;5084974;28;19987;-88
2022/10/20 06:21:09;;;;;;;;;;;13.80;85.90;;;;;;5101151;28;19986;-88
2022/10/20 06:23:35;;;;;;;;;;;13.80;86.10;;;;;;5100030;28;20055;-89
2022/10/20 06:26:04;;;;;;;;;;;13.80;86.30;;;;;;5076473;28;20393;-89
2022/10/20 06:28:30;;;;;;;;;;;13.80;86.30;;;;;;5087775;22;20082;-89
2022/10/20 06:30:56;;;;;;;;;;;13.90;86.50;;;;;;5073356;28;19955;-89
2022/10/20 06:33:23;;;;;;;;;;;13.90;86.40;;;;;;5062353;28;21349;-89
2022/10/20 06:35:48;;;;;;;;;;;14.00;86.20;;;;;;5053844;28;19951;-89
2022/10/20 06:38:14;;;;;;;;;;;14.10;86.10;;;;;;5072299;28;20035;-89
2022/10/20 06:40:39;;;;;;;;;;;14.20;86.00;;;;;;5070284;28;20413;-89
2022/10/20 06:43:05;;;;;;;;;;;14.20;86.00;;;;;;5071415;28;19968;-88
2022/10/20 06:45:30;;;;;;;;;;;14.30;86.30;;;;;;5074891;28;20085;-89
2022/10/20 06:47:56;;;;;;;;;;;14.30;86.70;;;;;;5070464;28;20463;-90
2022/10/20 06:50:21;;;;;;;;;;;14.40;86.60;;;;;;5071487;28;20391;-88
2022/10/20 06:52:47;;;;;;;;;;;14.40;86.20;;;;;;5089976;28;19964;-88
2022/10/20 06:55:13;;;;;;;;;;;14.60;85.80;;;;;;5091212;28;19946;-89
2022/10/20 06:57:38;;;;;;;;;;;14.60;85.60;;;;;;5091389;28;19943;-88
2022/10/20 07:00:04;;;;;;;;;;;14.70;85.60;;;;;;5090675;28;20396;-88
2022/10/20 07:02:30;;;;;;;;;;;14.60;86.20;;;;;;5088938;28;21916;-89
2022/10/20 07:04:55;;;;;;;;;;;14.70;87.40;;;;;;5088345;28;19943;-89
2022/10/20 07:07:21;;;;;;;;;;;14.60;87.80;;;;;;5090503;28;19936;-89
2022/10/20 07:09:46;;;;;;;;;;;14.70;88.30;;;;;;5091776;28;19944;-89
2022/10/20 07:12:12;;;;;;;;;;;14.60;87.90;;;;;;5091584;28;20001;-89
2022/10/20 07:14:37;;;;;;;;;;;14.80;88.20;;;;;;5091128;28;19946;-89
2022/10/20 07:17:03;;;;;;;;;;;14.80;87.90;;;;;;5089313;28;20412;-89
2022/10/20 07:19:29;;;;;;;;;;;14.90;87.50;;;;;;5074575;28;20423;-89
2022/10/20 07:21:54;;;;;;;;;;;15.10;86.60;;;;;;5090743;28;20393;-89
2022/10/20 07:24:20;;;;;;;;;;;15.20;86.50;;;;;;5091032;28;20011;-89
2022/10/20 07:26:46;;;;;;;;;;;15.30;86.50;;;;;;5086493;28;20026;-90
2022/10/20 07:29:12;;;;;;;;;;;15.40;86.50;;;;;;5089602;28;20047;-89
2022/10/20 07:31:42;;;;;;;;;;;15.40;86.20;;;;;;5091593;28;19943;-89
2022/10/20 07:34:09;;;;;;;;;;;15.40;85.90;;;;;;5095209;28;20006;-89
2022/10/20 07:36:35;;;;;;;;;;;15.60;85.40;;;;;;5073358;28;20037;-89
2022/10/20 07:39:03;;;;;;;;;;;15.70;85.10;;;;;;5092563;28;19998;-89
2022/10/20 07:41:28;;;;;;;;;;;15.80;84.90;;;;;;5091574;28;19942;-89
2022/10/20 07:43:54;;;;;;;;;;;15.90;84.60;;;;;;5089125;28;19964;-89
2022/10/20 07:46:20;;;;;;;;;;;16.00;84.70;;;;;;5086044;28;19957;-88
2022/10/20 07:48:46;;;;;;;;;;;16.10;84.50;;;;;;5090848;28;20037;-88
2022/10/20 07:51:20;;;;;;;;;;;16.20;84.30;;;;;;5090860;28;19967;-88
2022/10/20 07:53:46;;;;;;;;;;;16.30;84.00;;;;;;5090638;28;19942;-87
2022/10/20 07:56:12;;;;;;;;;;;16.30;84.00;;;;;;5089787;28;19950;-88
2022/10/20 07:58:38;;;;;;;;;;;16.30;84.20;;;;;;5090119;28;19947;-88
2022/10/20 08:01:04;;;;;;;;;;;16.40;84.20;;;;;;5088226;28;19944;-88
2022/10/20 08:03:30;;;;;;;;;;;16.50;84.20;;;;;;5090768;28;19960;-88
2022/10/20 08:05:55;;;;;;;;;;;16.70;84.10;;;;;;5090324;28;20401;-88
2022/10/20 08:08:21;;;;;;;;;;;16.80;83.50;;;;;;5089638;28;19943;-88
2022/10/20 08:10:47;;;;;;;;;;;16.90;83.20;;;;;;5088317;28;20449;-88
2022/10/20 08:13:12;;;;;;;;;;;16.90;82.90;;;;;;5092741;28;19955;-89
2022/10/20 08:15:38;;;;;;;;;;;17.10;82.40;;;;;;5094499;28;19943;-88
2022/10/20 08:18:03;;;;;;;;;;;17.20;82.10;;;;;;5093434;28;19958;-88
2022/10/20 08:20:29;;;;;;;;;;;17.30;81.80;;;;;;5092175;28;19986;-88
2022/10/20 08:22:54;;;;;;;;;;;17.40;81.40;;;;;;5093109;28;19970;-88
2022/10/20 08:25:20;;;;;;;;;;;17.50;81.20;;;;;;5090390;28;19947;-88
2022/10/20 08:27:46;;;;;;;;;;;17.70;79.70;;;;;;5088730;28;19948;-88
2022/10/20 08:30:11;;;;;;;;;;;17.80;79.00;;;;;;5093421;28;19940;-88
2022/10/20 08:32:37;;;;;;;;;;;17.90;78.80;;;;;;5093438;28;19959;-88
2022/10/20 08:35:03;;;;;;;;;;;18.00;78.80;;;;;;5094157;28;20405;-88
2022/10/20 08:37:29;;;;;;;;;;;18.20;77.90;;;;;;5094238;28;20332;-88
2022/10/20 08:39:55;;;;;;;;;;;18.30;77.40;;;;;;5095311;28;20003;-87
2022/10/20 08:42:20;;;;;;;;;;;18.50;75.60;;;;;;5092469;28;20009;-88
2022/10/20 08:44:46;;;;;;;;;;;18.60;75.50;;;;;;5091447;28;20147;-88
2022/10/20 08:47:15;;;;;;;;;;;18.70;74.70;;;;;;5092066;28;19986;-88
2022/10/20 08:49:43;;;;;;;;;;;18.80;74.30;;;;;;5091841;28;19987;-88
2022/10/20 08:52:10;;;;;;;;;;;18.90;73.70;;;;;;5091154;28;19963;-88
2022/10/20 08:54:36;;;;;;;;;;;19.00;73.60;;;;;;5092258;28;20421;-89
2022/10/20 08:57:01;;;;;;;;;;;19.10;74.60;;;;;;5093274;28;20002;-88
2022/10/20 08:59:34;;;;;;;;;;;19.20;73.60;;;;;;5089486;28;20025;-88
2022/10/20 09:02:02;;;;;;;;;;;19.30;73.00;;;;;;5087207;28;19942;-88
2022/10/20 09:04:36;;;;;;;;;;;19.40;71.90;;;;;;5093291;28;20089;-88
2022/10/20 09:07:04;;;;;;;;;;;19.60;71.70;;;;;;5104936;28;19950;-88
2022/10/20 09:09:30;;;;;;;;;;;19.70;71.70;;;;;;5091159;28;19947;-88
2022/10/20 09:12:02;;;;;;;;;;;19.70;71.20;;;;;;5098201;28;19958;-88
2022/10/20 09:14:28;;;;;;;;;;;19.90;70.30;;;;;;5093823;28;19946;-88
2022/10/20 09:16:54;;;;;;;;;;;19.90;70.50;;;;;;5084667;28;19945;-88
2022/10/20 09:19:20;;;;;;;;;;;20.00;69.60;;;;;;5090947;28;19966;-88
2022/10/20 09:21:49;;;;;;;;;;;20.10;69.50;;;;;;5092331;28;19951;-88
2022/10/20 09:24:15;;;;;;;;;;;20.20;68.90;;;;;;5092476;28;19955;-88
2022/10/20 09:26:45;;;;;;;;;;;20.30;69.20;;;;;;5093625;28;20407;-88
2022/10/20 09:29:10;;;;;;;;;;;20.30;69.30;;;;;;5092615;28;19971;-88
2022/10/20 09:31:38;;;;;;;;;;;20.40;68.80;;;;;;5092489;28;19942;-88
2022/10/20 09:34:24;;;;;;;;;;;20.50;68.90;;;;;;5091103;28;19943;-88
2022/10/20 09:36:51;;;;;;;;;;;20.60;68.20;;;;;;5093121;28;19946;-88
2022/10/20 09:39:18;;;;;;;;;;;20.70;66.70;;;;;;5093358;28;19990;-89
2022/10/20 09:41:43;;;;;;;;;;;20.80;66.30;;;;;;5094647;28;19946;-88
2022/10/20 09:44:13;;;;;;;;;;;20.80;65.80;;;;;;5092728;28;19965;-88
2022/10/20 09:46:47;;;;;;;;;;;20.90;66.20;;;;;;5091996;28;19944;-88
2022/10/20 09:49:31;;;;;;;;;;;21.00;65.80;;;;;;5091284;28;19942;-88
2022/10/20 09:51:57;;;;;;;;;;;21.20;64.60;;;;;;5092718;28;20056;-88
2022/10/20 09:54:24;;;;;;;;;;;21.30;64.60;;;;;;5093144;28;19946;-88
2022/10/20 09:56:51;;;;;;;;;;;21.30;64.20;;;;;;5093873;28;19979;-88
2022/10/20 09:59:29;;;;;;;;;;;21.40;63.40;;;;;;5075003;28;19947;-88
2022/10/20 10:01:56;;;;;;;;;;;21.50;64.20;;;;;;5091267;28;19950;-88
2022/10/20 10:04:35;;;;;;;;;;;21.70;63.70;;;;;;5092069;28;20034;-88
2022/10/20 10:07:02;;;;;;;;;;;21.80;62.00;;;;;;5091557;28;19981;-88
2022/10/20 10:09:36;;;;;;;;;;;21.80;61.90;;;;;;5091943;28;20330;-88
2022/10/20 10:12:03;;;;;;;;;;;21.80;61.50;;;;;;5091030;28;19948;-88
2022/10/20 10:14:32;;;;;;;;;;;21.90;62.20;;;;;;5093376;28;19989;-88
2022/10/20 10:16:58;;;;;;;;;;;22.00;62.20;;;;;;5094151;28;19939;-88
2022/10/20 10:19:31;;;;;;;;;;;22.10;61.60;;;;;;5094159;28;19945;-88
2022/10/20 10:22:01;;;;;;;;;;;22.20;61.20;;;;;;5094150;28;19952;-88
2022/10/20 10:24:33;;;;;;;;;;;22.30;60.40;;;;;;5093928;28;19967;-88
2022/10/20 10:26:58;;;;;;;;;;;22.30;60.50;;;;;;5093597;28;19950;-89
2022/10/20 10:29:28;;;;;;;;;;;22.50;61.20;;;;;;5093854;28;19977;-88
2022/10/20 10:31:58;;;;;;;;;;;22.60;59.60;;;;;;5093963;28;19942;-89
2022/10/20 10:34:24;;;;;;;;;;;22.70;58.90;;;;;;5093718;28;20007;-89
2022/10/20 10:36:49;;;;;;;;;;;22.80;58.60;;;;;;5075716;28;20391;-88
2022/10/20 10:39:15;;;;;;;;;;;22.90;58.40;;;;;;5093782;28;20440;-89
2022/10/20 10:42:10;;;;;;;;;;;23.00;57.40;;;;;;5093771;28;20411;-89
2022/10/20 10:44:54;;;;;;;;;;;23.10;57.60;;;;;;5038493;28;19978;-88
2022/10/20 10:47:19;;;;;;;;;;;23.10;57.80;;;;;;5093568;28;20406;-89
2022/10/20 10:50:11;;;;;;;;;;;23.20;57.60;;;;;;5093451;28;19945;-88
2022/10/20 10:52:49;;;;;;;;;;;23.20;57.20;;;;;;5069431;28;19965;-89
2022/10/20 10:55:24;;;;;;;;;;;23.20;57.00;;;;;;5093558;28;19981;-88
2022/10/20 10:57:52;;;;;;;;;;;23.20;57.30;;;;;;5093658;28;20004;-89
2022/10/20 11:00:30;;;;;;;;;;;23.30;57.30;;;;;;5093444;28;20023;-89
2022/10/20 11:03:14;;;;;;;;;;;23.50;55.70;;;;;;5093343;28;19964;-88
2022/10/20 11:05:43;;;;;;;;;;;23.60;56.30;;;;;;5093326;28;20389;-88
2022/10/20 11:08:08;;;;;;;;;;;23.70;56.10;;;;;;5093308;28;20032;-89
2022/10/20 11:10:36;;;;;;;;;;;23.80;56.70;;;;;;5093563;28;19998;-89
2022/10/20 11:13:05;;;;;;;;;;;24.00;56.00;;;;;;5092839;28;19948;-89
2022/10/20 11:15:48;;;;;;;;;;;24.20;55.40;;;;;;5090832;28;19944;-89
2022/10/20 11:18:17;;;;;;;;;;;24.40;55.60;;;;;;5092144;28;19942;-88
2022/10/20 11:20:49;;;;;;;;;;;24.50;54.80;;;;;;5092990;28;20049;-88
2022/10/20 11:23:23;;;;;;;;;;;24.70;53.90;;;;;;5092201;28;20001;-89
2022/10/20 11:25:52;;;;;;;;;;;24.90;54.20;;;;;;5092730;28;19948;-88
2022/10/20 11:28:30;;;;;;;;;;;25.10;52.80;;;;;;5092389;28;19976;-89
2022/10/20 11:30:56;;;;;;;;;;;25.30;51.50;;;;;;5088627;28;19948;-89
2022/10/20 11:33:26;;;;;;;;;;;25.50;51.60;;;;;;5083632;28;20490;-88
2022/10/20 11:35:52;;;;;;;;;;;25.80;51.40;;;;;;5090176;28;19944;-88
2022/10/20 11:38:17;;;;;;;;;;;25.90;49.70;;;;;;5087012;28;19957;-89
2022/10/20 11:40:45;;;;;;;;;;;25.90;51.00;;;;;;5089975;28;20423;-89
2022/10/20 11:43:17;;;;;;;;;;;26.00;51.40;;;;;;5085855;28;19964;-89
2022/10/20 11:45:53;;;;;;;;;;;26.20;50.20;;;;;;5089887;28;19996;-88
2022/10/20 11:48:22;;;;;;;;;;;26.30;51.00;;;;;;5094409;28;19950;-89
2022/10/20 11:50:51;;;;;;;;;;;26.30;50.60;;;;;;5092673;28;20037;-89
2022/10/20 11:53:17;;;;;;;;;;;26.50;49.70;;;;;;5095150;28;20036;-89
2022/10/20 11:56:01;;;;;;;;;;;26.90;47.80;;;;;;5095703;28;19987;-89
2022/10/20 11:58:36;;;;;;;;;;;27.30;47.00;;;;;;5095225;28;19945;-89
2022/10/20 12:01:17;;;;;;;;;;;27.70;46.30;;;;;;5089669;28;20032;-89
2022/10/20 12:03:45;;;;;;;;;;;28.10;44.70;;;;;;5089015;28;19967;-89
2022/10/20 12:06:17;;;;;;;;;;;28.30;44.60;;;;;;5088232;28;20449;-89
2022/10/20 12:08:54;;;;;;;;;;;28.20;45.10;;;;;;5091341;28;19941;-88
2022/10/20 12:11:26;;;;;;;;;;;27.70;45.10;;;;;;5088255;28;19990;-88
2022/10/20 12:13:51;;;;;;;;;;;27.20;45.50;;;;;;5092091;28;19951;-88
2022/10/20 12:16:36;;;;;;;;;;;27.10;45.60;;;;;;5086131;28;20412;-88
2022/10/20 12:19:05;;;;;;;;;;;27.30;45.60;;;;;;5086846;28;19979;-89
2022/10/20 12:21:49;;;;;;;;;;;27.80;44.00;;;;;;5090398;28;19948;-88
2022/10/20 12:24:33;;;;;;;;;;;28.60;43.70;;;;;;5090494;28;19963;-89
2022/10/20 12:27:07;;;;;;;;;;;28.70;42.70;;;;;;5084572;28;20379;-88
2022/10/20 12:29:32;;;;;;;;;;;27.90;43.20;;;;;;5090287;28;20014;-89
2022/10/20 12:32:20;;;;;;;;;;;28.30;43.20;;;;;;5091995;28;20391;-88
2022/10/20 12:34:56;;;;;;;;;;;28.20;42.40;;;;;;5074401;28;19942;-89
2022/10/20 12:37:29;;;;;;;;;;;28.20;43.40;;;;;;5077242;28;20555;-89
2022/10/20 12:40:15;;;;;;;;;;;28.60;41.80;;;;;;5101987;28;20002;-88
2022/10/20 12:42:53;;;;;;;;;;;29.00;41.00;;;;;;5093136;28;19951;-88
2022/10/20 12:45:23;;;;;;;;;;;28.70;41.80;;;;;;5091165;28;19996;-88
2022/10/20 12:47:58;;;;;;;;;;;28.30;42.10;;;;;;5095943;28;19999;-89
2022/10/20 12:50:33;;;;;;;;;;;28.20;41.90;;;;;;5091558;28;19949;-89
2022/10/20 12:53:09;;;;;;;;;;;27.90;42.70;;;;;;5088844;28;19942;-89
2022/10/20 12:55:36;;;;;;;;;;;27.70;42.90;;;;;;5104122;28;19943;-89
2022/10/20 12:58:10;;;;;;;;;;;28.40;42.20;;;;;;5094452;28;19956;-89
2022/10/20 13:00:36;;;;;;;;;;;29.20;41.40;;;;;;5092929;28;20038;-89
2022/10/20 13:03:21;;;;;;;;;;;29.70;40.10;;;;;;5093660;28;20065;-89
2022/10/20 13:05:47;;;;;;;;;;;30.50;37.50;;;;;;5078771;28;20006;-89
2022/10/20 13:08:18;;;;;;;;;;;30.60;38.00;;;;;;5094301;28;19949;-89
2022/10/20 13:10:44;;;;;;;;;;;30.80;38.90;;;;;;5094201;28;19943;-89
2022/10/20 13:13:09;;;;;;;;;;;30.80;38.00;;;;;;5099096;28;19939;-89
2022/10/20 13:15:41;;;;;;;;;;;30.60;37.90;;;;;;5088439;28;19964;-89
2022/10/20 13:18:06;;;;;;;;;;;30.30;38.60;;;;;;5104259;28;20037;-88
2022/10/20 13:20:38;;;;;;;;;;;29.70;39.50;;;;;;5096812;28;20436;-88
2022/10/20 13:23:04;;;;;;;;;;;28.50;41.30;;;;;;5100696;28;20298;-88
2022/10/20 13:25:39;;;;;;;;;;;28.50;41.60;;;;;;5097255;28;19981;-88
2022/10/20 13:28:13;;;;;;;;;;;28.60;41.10;;;;;;5086991;28;19971;-89
2022/10/20 13:30:51;;;;;;;;;;;28.70;41.30;;;;;;5088403;28;19949;-89
2022/10/20 13:33:35;;;;;;;;;;;28.50;42.00;;;;;;5087385;28;20039;-89
2022/10/20 13:36:10;;;;;;;;;;;28.50;41.70;;;;;;5091074;28;19948;-89
2022/10/20 13:38:54;;;;;;;;;;;28.30;42.40;;;;;;5087768;28;20492;-89
2022/10/20 13:41:37;;;;;;;;;;;27.80;43.50;;;;;;5087809;28;20033;-89
2022/10/20 13:44:03;;;;;;;;;;;27.70;42.30;;;;;;5087395;28;20011;-89
2022/10/20 13:46:31;;;;;;;;;;;27.40;44.80;;;;;;5092510;28;19938;-89
2022/10/20 13:49:16;;;;;;;;;;;27.00;45.30;;;;;;5091003;28;20439;-89
2022/10/20 13:51:50;;;;;;;;;;;26.80;46.20;;;;;;5086810;28;20052;-89
2022/10/20 13:54:31;;;;;;;;;;;26.50;46.50;;;;;;5089538;28;20329;-89
2022/10/20 13:56:57;;;;;;;;;;;26.00;48.20;;;;;;5090150;28;19999;-89
2022/10/20 13:59:26;;;;;;;;;;;25.50;49.00;;;;;;5085901;28;19944;-89
2022/10/20 14:01:52;;;;;;;;;;;25.10;49.20;;;;;;5070734;28;19984;-88
2022/10/20 14:04:31;;;;;;;;;;;24.80;49.90;;;;;;5089386;28;20012;-88
2022/10/20 14:07:11;;;;;;;;;;;24.70;51.40;;;;;;5090452;28;19945;-89
2022/10/20 14:09:38;;;;;;;;;;;24.60;52.30;;;;;;5087428;28;19942;-89
2022/10/20 14:12:03;;;;;;;;;;;24.40;53.10;;;;;;5090645;28;19946;-88
2022/10/20 14:14:29;;;;;;;;;;;24.30;54.30;;;;;;5090927;28;20010;-88
2022/10/20 14:16:57;;;;;;;;;;;24.20;54.40;;;;;;5082604;28;20950;-89
2022/10/20 14:19:26;;;;;;;;;;;24.10;53.60;;;;;;5091134;28;20048;-89
2022/10/20 14:21:55;;;;;;;;;;;23.90;54.00;;;;;;5090351;28;19999;-89
2022/10/20 14:24:31;;;;;;;;;;;23.80;55.20;;;;;;5094905;28;19958;-88
2022/10/20 14:26:58;;;;;;;;;;;23.80;54.40;;;;;;5087100;28;19949;-88